sensor_id;sensor_type;location;lat;lon;timestamp;pressure;altitude;pressure_sealevel;temperature;humidity
81151;BME280;70629;-26.026;27.976;2023-08-30T00:01:02;87400.03;;;10.11;58.88
81151;BME280;70629;-26.026;27.976;2023-08-30T00:02:36;87393.44;;;9.72;60.69
81151;BME280;70629;-26.026;27.976;2023-08-30T00:04:11;87393.16;;;9.67;60.89
81151;BME280;70629;-26.026;27.976;2023-08-30T00:05:46;87403.47;;;9.71;61.40
81151;BME280;70629;-26.026;27.976;2023-08-30T00:07:20;87393.50;;;10.14;60.90
81151;BME280;70629;-26.026;27.976;2023-08-30T00:08:55;87392.78;;;10.23;59.70
81151;BME280;70629;-26.026;27.976;2023-08-30T00:10:31;87400.09;;;10.01;59.80
81151;BME280;70629;-26.026;27.976;2023-08-30T00:12:07;87401.44;;;10.12;59.89
81151;BME280;70629;-26.026;27.976;2023-08-30T00:13:42;87402.50;;;9.97;60.19
81151;BME280;70629;-26.026;27.976;2023-08-30T00:15:17;87403.88;;;9.77;60.49
81151;BME280;70629;-26.026;27.976;2023-08-30T00:16:52;87400.06;;;9.70;61.48
81151;BME280;70629;-26.026;27.976;2023-08-30T00:18:27;87407.09;;;9.85;61.07
81151;BME280;70629;-26.026;27.976;2023-08-30T00:20:01;87406.13;;;9.81;60.66
81151;BME280;70629;-26.026;27.976;2023-08-30T00:21:37;87406.59;;;9.67;61.73
81151;BME280;70629;-26.026;27.976;2023-08-30T00:23:12;87404.78;;;9.91;60.11
81151;BME280;70629;-26.026;27.976;2023-08-30T00:24:47;87408.72;;;9.69;60.88
81151;BME280;70629;-26.026;27.976;2023-08-30T00:26:22;87405.59;;;9.73;60.99
81151;BME280;70629;-26.026;27.976;2023-08-30T00:27:57;87403.25;;;9.48;61.21
81151;BME280;70629;-26.026;27.976;2023-08-30T00:29:32;87400.63;;;9.79;60.06
81151;BME280;70629;-26.026;27.976;2023-08-30T00:31:07;87392.69;;;9.40;61.49
81151;BME280;70629;-26.026;27.976;2023-08-30T00:32:42;87395.19;;;9.57;61.70
81151;BME280;70629;-26.026;27.976;2023-08-30T00:34:19;87392.16;;;9.73;61.21
81151;BME280;70629;-26.026;27.976;2023-08-30T00:35:58;87392.00;;;9.70;60.83
81151;BME280;70629;-26.026;27.976;2023-08-30T00:37:33;87393.31;;;9.69;60.59
81151;BME280;70629;-26.026;27.976;2023-08-30T00:39:08;87396.78;;;9.51;61.75
81151;BME280;70629;-26.026;27.976;2023-08-30T00:40:42;87395.66;;;9.44;61.68
81151;BME280;70629;-26.026;27.976;2023-08-30T00:42:17;87394.00;;;9.30;62.65
81151;BME280;70629;-26.026;27.976;2023-08-30T00:43:52;87387.44;;;9.83;61.63
81151;BME280;70629;-26.026;27.976;2023-08-30T00:45:27;87389.06;;;9.66;62.48
81151;BME280;70629;-26.026;27.976;2023-08-30T00:47:02;87387.34;;;9.71;61.16
81151;BME280;70629;-26.026;27.976;2023-08-30T00:48:37;87394.63;;;9.59;62.59
81151;BME280;70629;-26.026;27.976;2023-08-30T00:50:13;87387.84;;;9.08;62.88
81151;BME280;70629;-26.026;27.976;2023-08-30T00:51:49;87387.00;;;8.96;63.60
81151;BME280;70629;-26.026;27.976;2023-08-30T00:53:25;87386.44;;;8.97;63.29
81151;BME280;70629;-26.026;27.976;2023-08-30T00:54:59;87393.78;;;8.97;63.29
81151;BME280;70629;-26.026;27.976;2023-08-30T00:56:35;87385.84;;;9.18;62.79
81151;BME280;70629;-26.026;27.976;2023-08-30T00:58:10;87386.81;;;9.22;63.12
81151;BME280;70629;-26.026;27.976;2023-08-30T00:59:45;87381.13;;;9.28;62.40
81151;BME280;70629;-26.026;27.976;2023-08-30T01:01:20;87382.63;;;9.00;63.86
81151;BME280;70629;-26.026;27.976;2023-08-30T01:02:56;87381.09;;;8.97;63.84
81151;BME280;70629;-26.026;27.976;2023-08-30T01:04:31;87378.88;;;9.34;62.72
81151;BME280;70629;-26.026;27.976;2023-08-30T01:06:07;87382.88;;;9.14;63.48
81151;BME280;70629;-26.026;27.976;2023-08-30T01:07:42;87373.44;;;9.13;63.96
81151;BME280;70629;-26.026;27.976;2023-08-30T01:09:17;87381.03;;;9.16;64.30
81151;BME280;70629;-26.026;27.976;2023-08-30T01:11:03;87379.16;;;9.29;63.57
81151;BME280;70629;-26.026;27.976;2023-08-30T01:12:51;87375.50;;;9.24;63.86
81151;BME280;70629;-26.026;27.976;2023-08-30T01:16:12;87378.97;;;8.96;65.09
81151;BME280;70629;-26.026;27.976;2023-08-30T01:17:53;87383.31;;;9.01;64.89
81151;BME280;70629;-26.026;27.976;2023-08-30T01:21:23;87382.88;;;9.14;64.55
81151;BME280;70629;-26.026;27.976;2023-08-30T01:24:03;87381.94;;;8.80;65.04
81151;BME280;70629;-26.026;27.976;2023-08-30T01:25:36;87376.69;;;9.11;64.28
81151;BME280;70629;-26.026;27.976;2023-08-30T01:27:15;87373.19;;;8.90;65.76
81151;BME280;70629;-26.026;27.976;2023-08-30T01:28:52;87375.56;;;9.05;65.46
81151;BME280;70629;-26.026;27.976;2023-08-30T01:30:29;87374.84;;;9.04;64.97
81151;BME280;70629;-26.026;27.976;2023-08-30T01:32:08;87376.09;;;9.22;64.09
81151;BME280;70629;-26.026;27.976;2023-08-30T01:33:44;87380.09;;;9.02;64.25
81151;BME280;70629;-26.026;27.976;2023-08-30T01:35:19;87374.38;;;9.27;63.93
81151;BME280;70629;-26.026;27.976;2023-08-30T01:36:56;87373.47;;;9.44;63.38
81151;BME280;70629;-26.026;27.976;2023-08-30T01:38:32;87373.56;;;9.05;63.89
81151;BME280;70629;-26.026;27.976;2023-08-30T01:40:08;87375.81;;;9.09;64.53
81151;BME280;70629;-26.026;27.976;2023-08-30T01:41:44;87375.59;;;8.86;64.35
81151;BME280;70629;-26.026;27.976;2023-08-30T01:43:22;87371.78;;;8.98;64.36
81151;BME280;70629;-26.026;27.976;2023-08-30T01:44:59;87373.19;;;8.90;64.64
81151;BME280;70629;-26.026;27.976;2023-08-30T01:46:35;87377.69;;;8.97;64.14
81151;BME280;70629;-26.026;27.976;2023-08-30T01:48:16;87377.84;;;8.89;64.38
81151;BME280;70629;-26.026;27.976;2023-08-30T01:49:53;87375.56;;;9.05;65.32
81151;BME280;70629;-26.026;27.976;2023-08-30T01:51:29;87377.16;;;8.89;65.04
81151;BME280;70629;-26.026;27.976;2023-08-30T01:53:05;87374.31;;;8.87;64.99
81151;BME280;70629;-26.026;27.976;2023-08-30T01:54:43;87373.34;;;8.72;65.51
81151;BME280;70629;-26.026;27.976;2023-08-30T01:56:19;87375.78;;;9.18;64.38
81151;BME280;70629;-26.026;27.976;2023-08-30T01:57:54;87372.44;;;9.08;64.31
81151;BME280;70629;-26.026;27.976;2023-08-30T01:59:29;87368.97;;;8.67;64.80
81151;BME280;70629;-26.026;27.976;2023-08-30T02:01:04;87376.63;;;8.42;64.64
81151;BME280;70629;-26.026;27.976;2023-08-30T02:02:39;87373.50;;;8.36;65.90
81151;BME280;70629;-26.026;27.976;2023-08-30T02:04:14;87368.16;;;8.46;66.04
81151;BME280;70629;-26.026;27.976;2023-08-30T02:09:49;87366.59;;;8.43;67.18
81151;BME280;70629;-26.026;27.976;2023-08-30T02:11:27;87371.81;;;8.69;66.30
81151;BME280;70629;-26.026;27.976;2023-08-30T02:13:04;87373.66;;;8.38;67.18
81151;BME280;70629;-26.026;27.976;2023-08-30T02:14:44;87376.31;;;8.76;66.79
81151;BME280;70629;-26.026;27.976;2023-08-30T02:16:21;87378.44;;;8.68;66.27
81151;BME280;70629;-26.026;27.976;2023-08-30T02:17:57;87377.44;;;8.83;66.17
81151;BME280;70629;-26.026;27.976;2023-08-30T02:19:34;87378.28;;;8.76;66.27
81151;BME280;70629;-26.026;27.976;2023-08-30T02:21:09;87379.25;;;8.80;66.41
81151;BME280;70629;-26.026;27.976;2023-08-30T02:22:44;87381.84;;;8.50;67.84
81151;BME280;70629;-26.026;27.976;2023-08-30T02:24:19;87381.41;;;8.53;66.41
81151;BME280;70629;-26.026;27.976;2023-08-30T02:25:54;87382.38;;;8.67;67.09
81151;BME280;70629;-26.026;27.976;2023-08-30T02:27:33;87378.00;;;8.81;66.78
81151;BME280;70629;-26.026;27.976;2023-08-30T02:29:09;87382.09;;;8.73;66.25
81151;BME280;70629;-26.026;27.976;2023-08-30T02:30:44;87379.31;;;8.61;66.61
81151;BME280;70629;-26.026;27.976;2023-08-30T02:32:19;87378.16;;;8.45;67.40
81151;BME280;70629;-26.026;27.976;2023-08-30T02:33:55;87380.56;;;8.41;66.94
81151;BME280;70629;-26.026;27.976;2023-08-30T02:35:33;87378.00;;;8.33;66.84
81151;BME280;70629;-26.026;27.976;2023-08-30T02:37:08;87372.53;;;8.51;66.86
81151;BME280;70629;-26.026;27.976;2023-08-30T02:38:44;87375.75;;;8.68;66.87
81151;BME280;70629;-26.026;27.976;2023-08-30T02:40:19;87373.06;;;8.68;66.37
81151;BME280;70629;-26.026;27.976;2023-08-30T02:41:53;87378.88;;;8.55;65.93
81151;BME280;70629;-26.026;27.976;2023-08-30T02:43:28;87379.56;;;8.56;66.44
81151;BME280;70629;-26.026;27.976;2023-08-30T02:45:04;87379.28;;;8.32;67.40
81151;BME280;70629;-26.026;27.976;2023-08-30T02:46:39;87378.28;;;8.18;68.46
81151;BME280;70629;-26.026;27.976;2023-08-30T02:48:14;87376.19;;;8.36;67.84
81151;BME280;70629;-26.026;27.976;2023-08-30T02:49:49;87379.00;;;8.48;67.15
81151;BME280;70629;-26.026;27.976;2023-08-30T02:51:25;87381.28;;;8.61;66.89
81151;BME280;70629;-26.026;27.976;2023-08-30T02:53:00;87381.13;;;8.59;67.43
81151;BME280;70629;-26.026;27.976;2023-08-30T02:54:35;87379.97;;;8.62;67.15
81151;BME280;70629;-26.026;27.976;2023-08-30T02:56:10;87371.81;;;8.69;66.39
81151;BME280;70629;-26.026;27.976;2023-08-30T02:57:45;87377.19;;;8.50;68.17
81151;BME280;70629;-26.026;27.976;2023-08-30T02:59:20;87376.91;;;8.65;67.21
81151;BME280;70629;-26.026;27.976;2023-08-30T03:00:55;87375.19;;;8.60;67.12
81151;BME280;70629;-26.026;27.976;2023-08-30T03:02:31;87377.31;;;8.43;68.03
81151;BME280;70629;-26.026;27.976;2023-08-30T03:04:07;87377.88;;;8.31;68.07
81151;BME280;70629;-26.026;27.976;2023-08-30T03:05:42;87383.34;;;8.24;68.63
81151;BME280;70629;-26.026;27.976;2023-08-30T03:07:16;87377.03;;;8.38;68.00
81151;BME280;70629;-26.026;27.976;2023-08-30T03:08:53;87366.00;;;8.15;69.45
81151;BME280;70629;-26.026;27.976;2023-08-30T03:10:28;87375.47;;;8.45;68.14
81151;BME280;70629;-26.026;27.976;2023-08-30T03:12:02;87378.53;;;8.13;68.91
81151;BME280;70629;-26.026;27.976;2023-08-30T03:13:37;87376.16;;;8.26;69.03
81151;BME280;70629;-26.026;27.976;2023-08-30T03:15:12;87375.31;;;8.43;67.44
81151;BME280;70629;-26.026;27.976;2023-08-30T03:16:47;87375.75;;;8.30;67.49
81151;BME280;70629;-26.026;27.976;2023-08-30T03:18:22;87369.66;;;8.20;68.60
81151;BME280;70629;-26.026;27.976;2023-08-30T03:19:57;87371.97;;;8.43;67.47
81151;BME280;70629;-26.026;27.976;2023-08-30T03:21:32;87378.28;;;8.28;68.30
81151;BME280;70629;-26.026;27.976;2023-08-30T03:23:07;87385.06;;;8.38;67.72
81151;BME280;70629;-26.026;27.976;2023-08-30T03:24:42;87378.66;;;8.15;68.07
81151;BME280;70629;-26.026;27.976;2023-08-30T03:26:16;87378.56;;;8.22;68.65
81151;BME280;70629;-26.026;27.976;2023-08-30T03:27:51;87375.63;;;8.38;67.90
81151;BME280;70629;-26.026;27.976;2023-08-30T03:29:27;87373.34;;;8.34;68.84
81151;BME280;70629;-26.026;27.976;2023-08-30T03:31:01;87378.81;;;8.17;69.79
81151;BME280;70629;-26.026;27.976;2023-08-30T03:32:36;87376.16;;;8.26;68.15
81151;BME280;70629;-26.026;27.976;2023-08-30T03:34:12;87385.16;;;8.12;69.87
81151;BME280;70629;-26.026;27.976;2023-08-30T03:35:47;87380.31;;;7.91;70.30
81151;BME280;70629;-26.026;27.976;2023-08-30T03:37:21;87383.19;;;8.03;69.95
81151;BME280;70629;-26.026;27.976;2023-08-30T03:38:56;87373.31;;;8.05;69.67
81151;BME280;70629;-26.026;27.976;2023-08-30T03:40:30;87383.19;;;8.12;69.30
81151;BME280;70629;-26.026;27.976;2023-08-30T03:42:06;87379.38;;;8.25;69.44
81151;BME280;70629;-26.026;27.976;2023-08-30T03:43:41;87377.66;;;8.01;69.76
81151;BME280;70629;-26.026;27.976;2023-08-30T03:45:15;87389.66;;;8.00;69.91
81151;BME280;70629;-26.026;27.976;2023-08-30T03:46:50;87379.03;;;8.38;69.24
81151;BME280;70629;-26.026;27.976;2023-08-30T03:48:26;87381.13;;;8.30;68.79
81151;BME280;70629;-26.026;27.976;2023-08-30T03:50:01;87383.94;;;8.32;69.17
81151;BME280;70629;-26.026;27.976;2023-08-30T03:51:36;87380.69;;;8.53;68.16
81151;BME280;70629;-26.026;27.976;2023-08-30T03:53:11;87378.72;;;8.44;68.81
81151;BME280;70629;-26.026;27.976;2023-08-30T03:54:46;87378.59;;;8.32;69.40
81151;BME280;70629;-26.026;27.976;2023-08-30T03:56:21;87375.59;;;8.09;69.61
81151;BME280;70629;-26.026;27.976;2023-08-30T03:57:55;87382.91;;;8.08;69.77
81151;BME280;70629;-26.026;27.976;2023-08-30T03:59:30;87380.69;;;8.24;69.05
81151;BME280;70629;-26.026;27.976;2023-08-30T04:01:05;87384.16;;;7.98;70.07
81151;BME280;70629;-26.026;27.976;2023-08-30T04:02:41;87382.06;;;8.25;69.08
81151;BME280;70629;-26.026;27.976;2023-08-30T04:04:16;87378.00;;;8.24;68.85
81151;BME280;70629;-26.026;27.976;2023-08-30T04:05:57;87375.75;;;8.30;68.35
81151;BME280;70629;-26.026;27.976;2023-08-30T04:07:32;87383.97;;;7.76;69.96
81151;BME280;70629;-26.026;27.976;2023-08-30T04:09:07;87377.38;;;7.97;70.18
81151;BME280;70629;-26.026;27.976;2023-08-30T04:10:42;87373.03;;;8.11;69.84
81151;BME280;70629;-26.026;27.976;2023-08-30T04:12:18;87384.16;;;7.98;70.28
81151;BME280;70629;-26.026;27.976;2023-08-30T04:13:53;87392.16;;;7.88;71.20
81151;BME280;70629;-26.026;27.976;2023-08-30T04:15:27;87385.16;;;8.02;70.89
81151;BME280;70629;-26.026;27.976;2023-08-30T04:17:02;87388.81;;;8.07;70.64
81151;BME280;70629;-26.026;27.976;2023-08-30T04:18:37;87390.25;;;8.27;69.18
81151;BME280;70629;-26.026;27.976;2023-08-30T04:20:12;87388.13;;;8.25;69.30
81151;BME280;70629;-26.026;27.976;2023-08-30T04:21:47;87395.16;;;8.02;70.92
81151;BME280;70629;-26.026;27.976;2023-08-30T04:23:22;87393.72;;;7.81;70.81
81151;BME280;70629;-26.026;27.976;2023-08-30T04:24:57;87397.94;;;7.84;71.72
81151;BME280;70629;-26.026;27.976;2023-08-30T04:26:32;87397.44;;;8.24;69.43
81151;BME280;70629;-26.026;27.976;2023-08-30T04:28:06;87399.09;;;8.01;70.94
81151;BME280;70629;-26.026;27.976;2023-08-30T04:29:42;87403.41;;;7.67;72.07
81151;BME280;70629;-26.026;27.976;2023-08-30T04:31:19;87400.09;;;7.96;70.46
81151;BME280;70629;-26.026;27.976;2023-08-30T04:32:54;87399.38;;;7.85;70.42
81151;BME280;70629;-26.026;27.976;2023-08-30T04:34:29;87404.72;;;7.85;71.56
81151;BME280;70629;-26.026;27.976;2023-08-30T04:36:04;87402.31;;;7.80;72.50
81151;BME280;70629;-26.026;27.976;2023-08-30T04:37:39;87401.59;;;7.79;71.76
81151;BME280;70629;-26.026;27.976;2023-08-30T04:39:15;87398.38;;;7.81;72.37
81151;BME280;70629;-26.026;27.976;2023-08-30T04:40:49;87393.06;;;8.00;71.06
81151;BME280;70629;-26.026;27.976;2023-08-30T04:42:24;87405.34;;;8.13;71.61
81151;BME280;70629;-26.026;27.976;2023-08-30T04:43:59;87396.09;;;8.43;69.75
81151;BME280;70629;-26.026;27.976;2023-08-30T04:45:35;87402.25;;;8.26;70.52
81151;BME280;70629;-26.026;27.976;2023-08-30T04:47:10;87401.09;;;8.19;71.01
81151;BME280;70629;-26.026;27.976;2023-08-30T04:48:44;87402.25;;;8.26;70.31
81151;BME280;70629;-26.026;27.976;2023-08-30T04:50:20;87399.19;;;8.49;70.51
81151;BME280;70629;-26.026;27.976;2023-08-30T04:51:55;87403.56;;;8.73;69.74
81151;BME280;70629;-26.026;27.976;2023-08-30T04:53:29;87403.28;;;8.69;69.26
81151;BME280;70629;-26.026;27.976;2023-08-30T04:55:05;87408.63;;;8.78;68.88
81151;BME280;70629;-26.026;27.976;2023-08-30T04:56:40;87407.66;;;8.55;69.28
81151;BME280;70629;-26.026;27.976;2023-08-30T04:58:15;87413.56;;;8.72;69.33
81151;BME280;70629;-26.026;27.976;2023-08-30T04:59:50;87418.66;;;8.68;69.24
81151;BME280;70629;-26.026;27.976;2023-08-30T05:01:25;87418.22;;;8.62;69.35
81151;BME280;70629;-26.026;27.976;2023-08-30T05:02:59;87418.09;;;8.60;70.07
81151;BME280;70629;-26.026;27.976;2023-08-30T05:04:35;87418.94;;;8.72;70.12
81151;BME280;70629;-26.026;27.976;2023-08-30T05:06:10;87417.09;;;8.85;69.65
81151;BME280;70629;-26.026;27.976;2023-08-30T05:07:46;87427.13;;;8.74;69.35
81151;BME280;70629;-26.026;27.976;2023-08-30T05:09:20;87421.88;;;8.86;69.19
81151;BME280;70629;-26.026;27.976;2023-08-30T05:10:59;87427.53;;;8.80;70.11
81151;BME280;70629;-26.026;27.976;2023-08-30T05:12:36;87423.28;;;9.16;68.23
81151;BME280;70629;-26.026;27.976;2023-08-30T05:14:11;87424.97;;;9.21;68.21
81151;BME280;70629;-26.026;27.976;2023-08-30T05:15:47;87431.59;;;9.10;68.67
81151;BME280;70629;-26.026;27.976;2023-08-30T05:17:22;87429.09;;;9.03;69.08
81151;BME280;70629;-26.026;27.976;2023-08-30T05:18:57;87421.44;;;9.09;68.92
81151;BME280;70629;-26.026;27.976;2023-08-30T05:20:32;87428.38;;;9.02;69.76
81151;BME280;70629;-26.026;27.976;2023-08-30T05:22:06;87427.69;;;8.82;70.36
81151;BME280;70629;-26.026;27.976;2023-08-30T05:23:42;87430.63;;;8.96;69.98
81151;BME280;70629;-26.026;27.976;2023-08-30T05:25:16;87427.09;;;9.22;69.55
81151;BME280;70629;-26.026;27.976;2023-08-30T05:26:51;87429.44;;;9.28;69.16
81151;BME280;70629;-26.026;27.976;2023-08-30T05:28:26;87435.78;;;9.42;69.03
81151;BME280;70629;-26.026;27.976;2023-08-30T05:30:01;87435.47;;;9.57;68.51
81151;BME280;70629;-26.026;27.976;2023-08-30T05:31:37;87435.31;;;9.65;68.48
81151;BME280;70629;-26.026;27.976;2023-08-30T05:33:12;87432.91;;;9.59;69.05
81151;BME280;70629;-26.026;27.976;2023-08-30T05:34:47;87432.03;;;9.66;68.58
81151;BME280;70629;-26.026;27.976;2023-08-30T05:36:22;87436.56;;;9.74;68.71
81151;BME280;70629;-26.026;27.976;2023-08-30T05:37:57;87438.50;;;9.83;68.46
81151;BME280;70629;-26.026;27.976;2023-08-30T05:39:31;87429.66;;;10.01;68.56
81151;BME280;70629;-26.026;27.976;2023-08-30T05:41:06;87431.31;;;10.16;68.00
81151;BME280;70629;-26.026;27.976;2023-08-30T05:42:41;87435.16;;;10.34;66.94
81151;BME280;70629;-26.026;27.976;2023-08-30T05:44:16;87427.50;;;10.40;67.14
81151;BME280;70629;-26.026;27.976;2023-08-30T05:45:51;87438.06;;;10.48;66.70
81151;BME280;70629;-26.026;27.976;2023-08-30T05:47:26;87435.56;;;10.62;66.93
81151;BME280;70629;-26.026;27.976;2023-08-30T05:49:01;87435.81;;;10.66;67.85
81151;BME280;70629;-26.026;27.976;2023-08-30T05:50:37;87438.94;;;10.83;66.55
81151;BME280;70629;-26.026;27.976;2023-08-30T05:52:12;87434.50;;;10.88;66.50
81151;BME280;70629;-26.026;27.976;2023-08-30T05:53:47;87432.34;;;10.96;66.56
81151;BME280;70629;-26.026;27.976;2023-08-30T05:55:22;87434.81;;;11.04;65.78
81151;BME280;70629;-26.026;27.976;2023-08-30T05:56:57;87440.16;;;10.92;66.21
81151;BME280;70629;-26.026;27.976;2023-08-30T05:58:31;87436.69;;;11.01;65.60
81151;BME280;70629;-26.026;27.976;2023-08-30T06:00:07;87435.28;;;11.00;66.43
81151;BME280;70629;-26.026;27.976;2023-08-30T06:01:43;87441.63;;;11.05;66.12
81151;BME280;70629;-26.026;27.976;2023-08-30T06:03:18;87436.22;;;11.05;66.21
81151;BME280;70629;-26.026;27.976;2023-08-30T06:04:53;87439.09;;;11.18;64.67
81151;BME280;70629;-26.026;27.976;2023-08-30T06:06:28;87436.06;;;11.24;65.78
81151;BME280;70629;-26.026;27.976;2023-08-30T06:08:03;87436.53;;;11.20;65.36
81151;BME280;70629;-26.026;27.976;2023-08-30T06:09:38;87435.84;;;11.31;64.53
81151;BME280;70629;-26.026;27.976;2023-08-30T06:11:13;87445.75;;;11.50;64.51
81151;BME280;70629;-26.026;27.976;2023-08-30T06:12:49;87440.03;;;11.56;65.13
81151;BME280;70629;-26.026;27.976;2023-08-30T06:14:24;87438.38;;;11.51;64.71
81151;BME280;70629;-26.026;27.976;2023-08-30T06:15:59;87439.13;;;11.63;64.22
81151;BME280;70629;-26.026;27.976;2023-08-30T06:17:34;87445.44;;;11.67;63.61
81151;BME280;70629;-26.026;27.976;2023-08-30T06:19:10;87447.78;;;11.61;64.24
81151;BME280;70629;-26.026;27.976;2023-08-30T06:20:45;87445.78;;;11.62;64.17
81151;BME280;70629;-26.026;27.976;2023-08-30T06:22:20;87443.69;;;11.72;63.66
81151;BME280;70629;-26.026;27.976;2023-08-30T06:23:55;87445.38;;;11.77;63.80
81151;BME280;70629;-26.026;27.976;2023-08-30T06:25:30;87448.41;;;11.83;63.59
81151;BME280;70629;-26.026;27.976;2023-08-30T06:27:05;87440.94;;;11.93;62.88
81151;BME280;70629;-26.026;27.976;2023-08-30T06:28:40;87444.47;;;12.07;62.19
81151;BME280;70629;-26.026;27.976;2023-08-30T06:30:15;87443.28;;;12.10;62.83
81151;BME280;70629;-26.026;27.976;2023-08-30T06:31:50;87441.41;;;12.24;62.30
81151;BME280;70629;-26.026;27.976;2023-08-30T06:33:25;87445.28;;;12.21;62.64
81151;BME280;70629;-26.026;27.976;2023-08-30T06:35:00;87443.53;;;12.26;61.24
81151;BME280;70629;-26.026;27.976;2023-08-30T06:36:35;87445.06;;;12.17;62.10
81151;BME280;70629;-26.026;27.976;2023-08-30T06:38:10;87444.00;;;12.22;62.42
81151;BME280;70629;-26.026;27.976;2023-08-30T06:39:45;87443.88;;;12.32;61.46
81151;BME280;70629;-26.026;27.976;2023-08-30T06:41:20;87450.09;;;12.35;61.08
81151;BME280;70629;-26.026;27.976;2023-08-30T06:42:55;87448.56;;;12.43;60.81
81151;BME280;70629;-26.026;27.976;2023-08-30T06:44:31;87448.44;;;12.53;60.39
81151;BME280;70629;-26.026;27.976;2023-08-30T06:46:06;87443.25;;;12.68;59.26
81151;BME280;70629;-26.026;27.976;2023-08-30T06:47:41;87445.00;;;12.75;59.70
81151;BME280;70629;-26.026;27.976;2023-08-30T06:49:17;87451.25;;;12.66;59.56
81151;BME280;70629;-26.026;27.976;2023-08-30T06:50:52;87450.28;;;12.73;59.08
81151;BME280;70629;-26.026;27.976;2023-08-30T06:52:27;87449.31;;;12.92;58.17
81151;BME280;70629;-26.026;27.976;2023-08-30T06:54:02;87444.56;;;13.04;58.56
81151;BME280;70629;-26.026;27.976;2023-08-30T06:55:37;87453.53;;;12.95;58.54
81151;BME280;70629;-26.026;27.976;2023-08-30T06:57:12;87449.53;;;12.96;58.02
81151;BME280;70629;-26.026;27.976;2023-08-30T06:58:47;87448.13;;;12.95;58.28
81151;BME280;70629;-26.026;27.976;2023-08-30T07:00:22;87448.53;;;13.27;57.90
81151;BME280;70629;-26.026;27.976;2023-08-30T07:01:57;87450.69;;;13.16;58.26
81151;BME280;70629;-26.026;27.976;2023-08-30T07:03:32;87448.03;;;13.42;56.56
81151;BME280;70629;-26.026;27.976;2023-08-30T07:05:08;87447.47;;;13.57;57.26
81151;BME280;70629;-26.026;27.976;2023-08-30T07:06:43;87448.88;;;13.58;56.68
81151;BME280;70629;-26.026;27.976;2023-08-30T07:08:18;87446.50;;;13.64;56.77
81151;BME280;70629;-26.026;27.976;2023-08-30T07:09:53;87443.47;;;13.83;56.52
81151;BME280;70629;-26.026;27.976;2023-08-30T07:11:28;87457.28;;;13.89;55.69
81151;BME280;70629;-26.026;27.976;2023-08-30T07:13:07;87448.75;;;14.06;55.49
81151;BME280;70629;-26.026;27.976;2023-08-30T07:14:44;87459.66;;;14.08;55.37
81151;BME280;70629;-26.026;27.976;2023-08-30T07:16:19;87450.38;;;14.25;54.83
81151;BME280;70629;-26.026;27.976;2023-08-30T07:17:54;87451.28;;;14.30;54.57
81151;BME280;70629;-26.026;27.976;2023-08-30T07:19:32;87450.31;;;14.37;53.87
81151;BME280;70629;-26.026;27.976;2023-08-30T07:21:07;87448.44;;;14.14;54.21
81151;BME280;70629;-26.026;27.976;2023-08-30T07:22:42;87444.75;;;14.21;53.88
81151;BME280;70629;-26.026;27.976;2023-08-30T07:24:17;87443.84;;;14.17;53.82
81151;BME280;70629;-26.026;27.976;2023-08-30T07:25:52;87448.97;;;14.24;53.56
81151;BME280;70629;-26.026;27.976;2023-08-30T07:27:27;87441.72;;;14.81;54.42
81151;BME280;70629;-26.026;27.976;2023-08-30T07:29:03;87445.84;;;15.39;51.53
81151;BME280;70629;-26.026;27.976;2023-08-30T07:30:41;87438.56;;;15.14;51.90
81151;BME280;70629;-26.026;27.976;2023-08-30T07:32:16;87428.84;;;15.09;53.29
81151;BME280;70629;-26.026;27.976;2023-08-30T07:33:51;87444.50;;;15.11;51.64
81151;BME280;70629;-26.026;27.976;2023-08-30T07:35:26;87438.66;;;15.16;51.00
81151;BME280;70629;-26.026;27.976;2023-08-30T07:37:01;87442.91;;;15.06;51.04
81151;BME280;70629;-26.026;27.976;2023-08-30T07:38:36;87438.06;;;15.18;51.43
81151;BME280;70629;-26.026;27.976;2023-08-30T07:40:11;87437.09;;;15.41;49.85
81151;BME280;70629;-26.026;27.976;2023-08-30T07:41:46;87435.75;;;15.12;50.65
81151;BME280;70629;-26.026;27.976;2023-08-30T07:43:21;87442.91;;;15.06;51.02
81151;BME280;70629;-26.026;27.976;2023-08-30T07:44:56;87438.44;;;15.26;50.74
81151;BME280;70629;-26.026;27.976;2023-08-30T07:46:34;87436.16;;;15.20;51.14
81151;BME280;70629;-26.026;27.976;2023-08-30T07:48:09;87433.16;;;15.87;51.48
81151;BME280;70629;-26.026;27.976;2023-08-30T07:49:44;87438.28;;;16.25;48.36
81151;BME280;70629;-26.026;27.976;2023-08-30T07:51:19;87430.53;;;15.59;49.21
81151;BME280;70629;-26.026;27.976;2023-08-30T07:52:54;87437.31;;;16.03;49.99
81151;BME280;70629;-26.026;27.976;2023-08-30T07:54:30;87430.84;;;16.42;47.98
81151;BME280;70629;-26.026;27.976;2023-08-30T07:56:06;87425.44;;;16.42;47.85
81151;BME280;70629;-26.026;27.976;2023-08-30T07:57:42;87423.63;;;16.95;46.95
81151;BME280;70629;-26.026;27.976;2023-08-30T07:59:17;87422.00;;;16.41;46.91
81151;BME280;70629;-26.026;27.976;2023-08-30T08:00:54;87419.81;;;16.22;47.84
81151;BME280;70629;-26.026;27.976;2023-08-30T08:02:30;87421.00;;;15.88;48.38
81151;BME280;70629;-26.026;27.976;2023-08-30T08:04:05;87419.50;;;15.85;48.27
81151;BME280;70629;-26.026;27.976;2023-08-30T08:05:41;87420.63;;;15.79;48.27
81151;BME280;70629;-26.026;27.976;2023-08-30T08:07:16;87409.41;;;16.79;47.60
81151;BME280;70629;-26.026;27.976;2023-08-30T08:08:51;87411.84;;;17.22;47.28
81151;BME280;70629;-26.026;27.976;2023-08-30T08:10:25;87416.94;;;16.81;46.83
81151;BME280;70629;-26.026;27.976;2023-08-30T08:12:00;87409.75;;;17.38;44.63
81151;BME280;70629;-26.026;27.976;2023-08-30T08:13:35;87409.16;;;17.40;46.25
81151;BME280;70629;-26.026;27.976;2023-08-30T08:15:11;87398.00;;;17.67;46.37
81151;BME280;70629;-26.026;27.976;2023-08-30T08:16:46;87402.97;;;17.73;45.23
81151;BME280;70629;-26.026;27.976;2023-08-30T08:18:21;87398.31;;;16.91;46.69
81151;BME280;70629;-26.026;27.976;2023-08-30T08:19:56;87402.38;;;17.23;45.16
81151;BME280;70629;-26.026;27.976;2023-08-30T08:21:31;87397.38;;;17.69;45.38
81151;BME280;70629;-26.026;27.976;2023-08-30T08:23:06;87393.16;;;17.66;44.70
81151;BME280;70629;-26.026;27.976;2023-08-30T08:24:41;87394.25;;;17.76;44.00